Mendota, IL (61342)

2:54 AM CDT on August 27, 2016 (GMT -0500)
Northbrook | | Change Station

Elev 778 ft 41.56 °N, 89.12 °W | Updated 3 seconds ago

Light Thunderstorms and Rain
Light Thunderstorm Rain
67.8 °F
Feels Like 67.8 °F
N
0.0
Wind Variable Wind from SE
Gusts 0.0 mph

Today
High -- | Low -- °F
--% Chance of Precip.
Yesterday
High -- | Low -- °F
Precip. -- in
Pressure 30.07 in
Visibility 7.0 miles
Clouds Scattered Clouds 2000 ft
Mostly Cloudy 6000 ft
Overcast 9000 ft
Dew Point 68 °F
Humidity 99%
Rainfall 0.11 in
Snow Depth Not available.
6:17 AM 7:36 PM
Waning Crescent, 26% visible
METAR KVYS 270735Z AUTO 10006KT 7SM -VCTSRA SCT020 BKN060 OVC090 20/20 A3007 RMK AO2 LTG DSNT SW THRU NW P0002 T02030201
Pressure 30.07 in
Visibility 7.0 miles
Clouds Scattered Clouds 2000 ft
Mostly Cloudy 6000 ft
Overcast 9000 ft
Dew Point 68 °F
Humidity 99%
Rainfall 0.11 in
Snow Depth Not available.
6:17 AM 7:36 PM
Waning Crescent, 26% visible
METAR KVYS 270735Z AUTO 10006KT 7SM -VCTSRA SCT020 BKN060 OVC090 20/20 A3007 RMK AO2 LTG DSNT SW THRU NW P0002 T02030201

10-Day Weather Forecast

Almanac

Astronomy

Aug. 27, 2016 Rise Set
Actual Time
Civil Twilight
Nautical Twilight
Astronomical Twilight
Moon
Length of Visible Light
Length of Day
Tomorrow will be .
, % of the Moon is Illuminated

Today's Extremes

State Highs State Lows

Community

WunderPhotos

Upload Photos

1,935,303 photos uploaded!

WunderBlog® & News

Nearby

Air Quality

  Air Quality AQ Index Pollutant
Not available.

Snow Depth

Station Depth Elevation

Earthquake Activity

City Distance Mag. Time & Date
Minimum magnitude displayed is 2.5.

Coastal Water Temperatures

Place Temperature

Stations

Nearby Weather Stations

Station Location Temp. Windchill Dew Point Humidity Wind Precip. Elev Updated Type
                   

Watches & Warnings

There are currently no watches in effect.